createdAt,value
2022-12-15T00:04:37.351Z,78.59
2022-12-15T00:09:59.752Z,78.47
2022-12-15T00:15:23.055Z,78.44
2022-12-15T00:20:45.348Z,78.86
2022-12-15T00:26:08.022Z,79.29
2022-12-15T00:31:31.238Z,79.50
2022-12-15T00:36:54.108Z,79.54
2022-12-15T00:41:57.689Z,79.48
2022-12-15T00:47:02.104Z,79.57
2022-12-15T00:52:24.791Z,79.71
2022-12-15T00:57:48.072Z,79.92
2022-12-15T01:03:10.501Z,79.68
2022-12-15T01:08:33.272Z,79.37
2022-12-15T01:13:55.567Z,78.99
2022-12-15T01:19:17.936Z,79.08
2022-12-15T01:24:21.640Z,79.07
2022-12-15T01:29:26.302Z,79.14
2022-12-15T01:34:30.132Z,79.39
2022-12-15T01:39:52.265Z,79.33
2022-12-15T01:45:48.570Z,79.30
2022-12-15T01:51:38.429Z,79.36
2022-12-15T01:56:49.024Z,79.86
2022-12-15T02:01:53.002Z,79.88
2022-12-15T02:06:57.287Z,79.82
2022-12-15T02:12:40.845Z,79.72
2022-12-15T02:18:30.019Z,79.67
2022-12-15T02:23:51.570Z,79.83
2022-12-15T02:29:07.024Z,80.04
2022-12-15T02:34:40.897Z,80.21
2022-12-15T02:39:45.544Z,80.01
2022-12-15T02:44:59.790Z,79.87
2022-12-15T02:50:41.611Z,79.99
2022-12-15T02:55:57.932Z,79.95
2022-12-15T03:01:19.166Z,80.01
2022-12-15T03:06:26.932Z,79.74
2022-12-15T03:11:31.161Z,79.69
2022-12-15T03:16:34.922Z,79.59
2022-12-15T03:21:39.069Z,79.53
2022-12-15T03:26:44.227Z,79.42
2022-12-15T03:31:49.701Z,79.43
2022-12-15T03:36:54.135Z,79.51
2022-12-15T03:41:58.060Z,79.75
2022-12-15T03:47:03.767Z,80.24
2022-12-15T03:52:07.764Z,80.42
2022-12-15T03:57:11.694Z,80.32
2022-12-15T04:02:15.656Z,80.36
2022-12-15T04:07:19.859Z,80.46
2022-12-15T04:12:23.977Z,80.19
2022-12-15T04:17:27.930Z,79.96
2022-12-15T04:22:31.626Z,80.05
2022-12-15T04:27:59.836Z,80.07
2022-12-15T04:33:30.583Z,79.86
2022-12-15T04:38:53.761Z,79.75
2022-12-15T04:44:16.265Z,79.97
2022-12-15T04:49:38.885Z,80.04
2022-12-15T04:55:01.652Z,79.93
2022-12-15T05:00:25.659Z,80.02
2022-12-15T05:05:47.923Z,79.85
2022-12-15T05:11:10.381Z,80.00
2022-12-15T05:16:32.834Z,80.33
2022-12-15T05:21:55.529Z,80.56
2022-12-15T05:27:18.521Z,80.68
2022-12-15T05:32:22.509Z,80.52
2022-12-15T05:37:26.225Z,80.79
2022-12-15T05:42:29.920Z,80.49
2022-12-15T05:47:34.825Z,80.59
2022-12-15T05:52:38.430Z,80.44
2022-12-15T05:57:42.289Z,80.61
2022-12-15T06:02:46.106Z,80.64
2022-12-15T06:07:49.997Z,80.78
2022-12-15T06:12:54.603Z,80.74
2022-12-15T06:17:58.671Z,80.79
2022-12-15T06:26:49.816Z,81.01
2022-12-15T06:31:54.132Z,81.07
2022-12-15T06:36:58.245Z,81.27
2022-12-15T06:42:01.916Z,81.32
2022-12-15T06:47:05.896Z,81.56
2022-12-15T06:52:09.877Z,81.58
2022-12-15T06:57:13.599Z,81.68
2022-12-15T07:02:25.139Z,81.50
2022-12-15T07:07:32.948Z,81.52
2022-12-15T07:12:37.453Z,81.61
2022-12-15T07:17:41.600Z,81.65
2022-12-15T07:22:50.966Z,81.43
2022-12-15T07:27:54.621Z,81.45
2022-12-15T07:32:59.432Z,81.39
2022-12-15T07:38:07.993Z,81.32
2022-12-15T07:43:11.662Z,81.17
2022-12-15T07:48:15.291Z,81.04
2022-12-15T07:53:18.923Z,81.07
2022-12-15T07:58:22.633Z,80.93
2022-12-15T08:03:26.619Z,80.65
2022-12-15T08:08:31.532Z,80.68
2022-12-15T08:19:03.347Z,80.49
2022-12-15T08:24:08.817Z,80.42
2022-12-15T08:34:39.282Z,80.41
2022-12-15T08:39:43.220Z,80.33
2022-12-15T08:44:50.765Z,80.10
2022-12-15T08:49:56.083Z,79.95
2022-12-15T08:55:00.105Z,79.53
2022-12-15T09:00:05.932Z,79.17
2022-12-15T09:05:10.240Z,78.92
2022-12-15T09:10:14.366Z,78.58
2022-12-15T09:15:23.273Z,78.38
2022-12-15T09:20:38.485Z,78.57
2022-12-15T09:25:43.251Z,78.56
2022-12-15T09:30:47.311Z,78.35
2022-12-15T09:35:52.495Z,78.13
2022-12-15T09:40:56.648Z,77.80
2022-12-15T09:46:27.102Z,77.76
2022-12-15T09:51:44.467Z,77.61
2022-12-15T09:56:57.330Z,77.71
2022-12-15T10:02:21.994Z,77.61
2022-12-15T10:07:35.242Z,77.67
2022-12-15T10:12:50.268Z,77.71
2022-12-15T10:18:22.617Z,77.84
2022-12-15T10:23:27.405Z,77.91
2022-12-15T10:28:59.374Z,77.96
2022-12-15T10:34:17.660Z,78.07
2022-12-15T10:39:24.117Z,78.04
2022-12-15T10:44:39.819Z,77.94
2022-12-15T10:49:43.838Z,77.90
2022-12-15T10:54:52.777Z,77.97
2022-12-15T11:00:16.162Z,77.88
2022-12-15T11:05:20.702Z,77.79
2022-12-15T11:11:01.266Z,78.00
2022-12-15T11:16:20.151Z,78.39
2022-12-15T11:21:39.164Z,78.54
2022-12-15T11:26:49.211Z,79.46
2022-12-15T11:31:58.852Z,79.35
2022-12-15T11:37:19.922Z,79.14
2022-12-15T11:42:35.026Z,78.74
2022-12-15T11:47:48.656Z,78.59
2022-12-15T11:53:31.928Z,78.57
2022-12-15T11:59:00.715Z,78.57
2022-12-15T12:04:47.241Z,78.68
2022-12-15T12:10:09.808Z,78.54
2022-12-15T12:15:27.053Z,78.64
2022-12-15T12:20:52.461Z,78.71
2022-12-15T12:26:24.679Z,78.89
2022-12-15T12:31:50.758Z,78.82
2022-12-15T12:37:05.091Z,79.07
2022-12-15T12:42:52.428Z,79.08
2022-12-15T12:48:09.792Z,79.11
2022-12-15T12:53:34.895Z,79.36
2022-12-15T12:58:48.468Z,79.69
2022-12-15T13:04:31.083Z,80.00
2022-12-15T13:09:44.063Z,80.08
2022-12-15T13:14:55.196Z,80.57
2022-12-15T13:20:01.714Z,80.75
2022-12-15T13:25:41.925Z,80.64
2022-12-15T13:31:29.684Z,80.34
2022-12-15T13:36:42.410Z,81.17
2022-12-15T13:47:19.317Z,81.88
2022-12-15T13:58:21.384Z,81.93
2022-12-15T14:03:26.238Z,81.57
2022-12-15T14:08:31.630Z,81.42
2022-12-15T14:13:37.491Z,81.48
2022-12-15T14:18:44.349Z,81.17
2022-12-15T14:24:19.709Z,81.21
2022-12-15T14:29:14.604Z,81.89
2022-12-15T14:34:30.819Z,81.86
2022-12-15T14:39:46.830Z,82.21
2022-12-15T14:44:58.397Z,82.25
2022-12-15T14:50:13.829Z,82.14
2022-12-15T14:55:38.671Z,82.39
2022-12-15T15:00:54.574Z,82.23
2022-12-15T15:06:18.761Z,82.30
2022-12-15T15:11:41.272Z,82.58
2022-12-15T15:17:01.406Z,82.97
2022-12-15T15:22:06.375Z,83.18
2022-12-15T15:32:58.393Z,82.88
2022-12-15T15:38:30.546Z,82.57
2022-12-15T15:43:34.624Z,82.41
2022-12-15T15:48:47.766Z,82.43
2022-12-15T15:53:54.345Z,82.51
2022-12-15T15:59:16.990Z,82.35
2022-12-15T16:04:21.223Z,82.49
2022-12-15T16:09:27.184Z,82.49
2022-12-15T16:14:32.625Z,82.49
2022-12-15T16:19:39.860Z,82.64
2022-12-15T16:24:44.923Z,82.80
2022-12-15T16:29:49.067Z,82.99
2022-12-15T16:34:54.209Z,83.18
2022-12-15T16:39:58.157Z,83.32
2022-12-15T16:45:13.344Z,83.54
2022-12-15T16:50:21.976Z,83.42
2022-12-15T16:55:38.137Z,83.31
2022-12-15T17:00:45.497Z,83.06
2022-12-15T17:05:54.575Z,83.14
2022-12-15T17:10:58.378Z,83.20
2022-12-15T17:16:03.580Z,83.40
2022-12-15T17:21:22.231Z,83.61
2022-12-15T17:26:30.961Z,83.56
2022-12-15T17:31:36.162Z,83.44
2022-12-15T17:36:41.771Z,83.64
2022-12-15T17:42:02.347Z,83.34
2022-12-15T17:47:10.037Z,83.32
2022-12-15T17:52:30.137Z,83.15
2022-12-15T17:57:34.766Z,83.26
2022-12-15T18:02:40.061Z,83.82
2022-12-15T18:07:47.825Z,83.90
2022-12-15T18:12:52.891Z,83.94
2022-12-15T18:17:57.823Z,84.15
2022-12-15T18:23:02.116Z,83.80
2022-12-15T18:28:35.280Z,83.57
2022-12-15T18:33:39.325Z,83.71
2022-12-15T18:38:45.600Z,83.69
2022-12-15T18:44:01.610Z,83.42
2022-12-15T18:49:11.754Z,83.50
2022-12-15T18:54:25.718Z,83.46
2022-12-15T18:59:29.777Z,83.55
2022-12-15T19:04:33.789Z,83.31
2022-12-15T19:09:42.946Z,83.00
2022-12-15T19:14:50.548Z,82.85
2022-12-15T19:20:13.088Z,82.60
2022-12-15T19:25:31.758Z,82.18
2022-12-15T19:30:51.556Z,81.88
2022-12-15T19:36:26.730Z,81.46
2022-12-15T19:41:36.526Z,81.18
2022-12-15T19:46:43.108Z,81.14
2022-12-15T19:51:47.347Z,81.17
2022-12-15T19:56:52.203Z,81.01
2022-12-15T20:01:56.497Z,80.65
2022-12-15T20:07:04.968Z,80.87
2022-12-15T20:12:19.050Z,81.01
2022-12-15T20:17:23.056Z,81.14
2022-12-15T20:22:38.596Z,80.92
2022-12-15T20:27:57.126Z,81.03
2022-12-15T20:33:17.957Z,81.07
2022-12-15T20:38:46.917Z,80.86
2022-12-15T20:44:09.291Z,80.75
2022-12-15T20:49:37.317Z,80.71
2022-12-15T20:54:53.262Z,80.46
2022-12-15T21:00:00.642Z,80.01
2022-12-15T21:05:10.103Z,80.29
2022-12-15T21:10:21.229Z,80.48
2022-12-15T21:15:28.102Z,80.29
2022-12-15T21:20:32.989Z,80.18
2022-12-15T21:25:36.700Z,79.46
2022-12-15T21:30:41.324Z,79.57
2022-12-15T21:35:48.329Z,79.72
2022-12-15T21:40:57.722Z,79.40
2022-12-15T21:46:20.522Z,79.22
2022-12-15T21:51:35.088Z,79.61
2022-12-15T21:56:40.218Z,79.92
2022-12-15T22:01:45.667Z,79.65
2022-12-15T22:06:53.766Z,79.67
2022-12-15T22:12:04.752Z,80.14
2022-12-15T22:17:22.905Z,80.40
2022-12-15T22:22:32.390Z,80.42
2022-12-15T22:27:42.881Z,80.40
2022-12-15T22:32:55.713Z,80.38
2022-12-15T22:38:03.582Z,80.75
2022-12-15T22:43:27.519Z,80.83
2022-12-15T22:48:37.423Z,80.88
2022-12-15T22:53:41.594Z,80.68
2022-12-15T22:58:47.744Z,80.67
2022-12-15T23:03:53.239Z,80.64
2022-12-15T23:08:59.322Z,80.69
2022-12-15T23:14:11.373Z,81.03
2022-12-15T23:19:24.223Z,81.10
2022-12-15T23:24:28.412Z,80.94
2022-12-15T23:29:32.227Z,80.85
2022-12-15T23:34:35.973Z,80.74
2022-12-15T23:39:39.883Z,80.55
2022-12-15T23:44:43.675Z,80.78
2022-12-15T23:49:47.945Z,80.84
2022-12-15T23:54:52.489Z,80.64
2022-12-15T23:59:56.407Z,80.75
